createdAt,value
2023-11-30T00:01:27.732Z,50.22
2023-11-30T00:03:55.641Z,48.88
2023-11-30T00:06:23.759Z,41.38
2023-11-30T00:08:54.620Z,39.40
2023-11-30T00:11:22.673Z,39.17
2023-11-30T00:13:50.669Z,43.33
2023-11-30T00:16:18.745Z,39.28
2023-11-30T00:18:46.679Z,41.80
2023-11-30T00:21:15.252Z,37.38
2023-11-30T00:23:43.100Z,43.40
2023-11-30T00:26:12.587Z,38.70
2023-11-30T00:28:41.649Z,45.95
2023-11-30T00:31:09.562Z,42.60
2023-11-30T00:33:37.815Z,41.75
2023-11-30T00:36:09.449Z,40.13
2023-11-30T00:38:37.616Z,38.67
2023-11-30T00:41:05.590Z,41.65
2023-11-30T00:43:34.868Z,39.95
2023-11-30T00:46:09.500Z,38.70
2023-11-30T00:48:38.411Z,36.40
2023-11-30T00:51:06.515Z,34.13
2023-11-30T00:53:34.549Z,33.83
2023-11-30T00:56:02.384Z,33.03
2023-11-30T00:58:30.636Z,29.88
2023-11-30T01:01:00.010Z,29.60
2023-11-30T01:03:28.111Z,37.97
2023-11-30T01:05:56.116Z,37.10
2023-11-30T01:08:24.332Z,28.70
2023-11-30T01:10:52.182Z,31.65
2023-11-30T01:13:20.098Z,30.45
2023-11-30T01:15:48.339Z,30.45
2023-11-30T01:18:17.947Z,29.25
2023-11-30T01:20:45.952Z,27.65
2023-11-30T01:23:14.022Z,30.83
2023-11-30T01:25:41.949Z,31.95
2023-11-30T01:28:09.968Z,23.58
2023-11-30T01:30:38.144Z,24.52
2023-11-30T01:33:06.257Z,27.13
2023-11-30T01:35:35.637Z,34.92
2023-11-30T01:38:05.264Z,19.88
2023-11-30T01:40:33.957Z,27.77
2023-11-30T01:43:02.011Z,22.70
2023-11-30T01:45:30.319Z,21.90
2023-11-30T01:47:58.663Z,24.35
2023-11-30T01:50:26.914Z,24.55
2023-11-30T01:52:56.325Z,26.70
2023-11-30T01:55:24.444Z,22.00
2023-11-30T01:57:52.619Z,22.63
2023-11-30T02:00:21.737Z,13.73
2023-11-30T02:02:50.576Z,20.52
2023-11-30T02:05:18.620Z,21.30
2023-11-30T02:07:46.798Z,14.10
2023-11-30T02:10:16.237Z,13.93
2023-11-30T02:12:44.124Z,15.00
2023-11-30T02:15:12.224Z,18.35
2023-11-30T02:17:40.487Z,12.80
2023-11-30T02:20:09.385Z,13.93
2023-11-30T02:22:38.781Z,10.23
2023-11-30T02:25:07.542Z,14.32
2023-11-30T02:27:35.616Z,15.02
2023-11-30T02:30:03.542Z,15.02
2023-11-30T02:32:31.435Z,16.95
2023-11-30T02:34:59.659Z,17.55
2023-11-30T02:38:06.778Z,18.20
2023-11-30T02:40:35.103Z,20.45
2023-11-30T02:43:02.898Z,20.63
2023-11-30T02:45:31.781Z,19.80
2023-11-30T02:48:00.009Z,19.73
2023-11-30T02:50:27.957Z,17.25
2023-11-30T02:52:55.869Z,23.83
2023-11-30T02:55:25.072Z,23.48
2023-11-30T02:57:53.104Z,20.17
2023-11-30T03:00:21.410Z,23.23
2023-11-30T03:02:49.317Z,19.75
2023-11-30T03:05:17.366Z,17.33
2023-11-30T03:07:46.292Z,15.05
2023-11-30T03:10:14.353Z,13.55
2023-11-30T03:12:43.617Z,19.45
2023-11-30T03:15:14.176Z,19.70
2023-11-30T03:17:42.396Z,22.05
2023-11-30T03:20:11.566Z,22.40
2023-11-30T03:22:39.757Z,23.90
2023-11-30T03:25:08.591Z,20.95
2023-11-30T03:27:36.472Z,25.42
2023-11-30T03:30:06.984Z,32.75
2023-11-30T03:32:35.065Z,31.02
2023-11-30T03:35:04.049Z,27.30
2023-11-30T03:37:31.945Z,28.92
2023-11-30T03:40:00.069Z,25.13
2023-11-30T03:42:28.167Z,26.25
2023-11-30T03:44:56.406Z,27.77
2023-11-30T03:47:25.668Z,28.70
2023-11-30T03:49:53.876Z,31.13
2023-11-30T03:52:22.655Z,29.25
2023-11-30T03:54:50.926Z,26.98
2023-11-30T03:57:18.831Z,30.33
2023-11-30T03:59:47.731Z,28.92
2023-11-30T04:02:15.743Z,31.88
2023-11-30T04:04:45.091Z,28.95
2023-11-30T04:07:13.294Z,30.38
2023-11-30T04:09:41.224Z,32.53
2023-11-30T04:12:09.470Z,36.30
2023-11-30T04:14:37.434Z,30.63
2023-11-30T04:17:05.795Z,28.27
2023-11-30T04:19:35.011Z,27.75
2023-11-30T04:22:04.819Z,28.75
2023-11-30T04:24:32.779Z,32.47
2023-11-30T04:27:01.224Z,29.83
2023-11-30T04:29:29.375Z,26.48
2023-11-30T04:31:58.280Z,27.45
2023-11-30T04:34:26.323Z,28.27
2023-11-30T04:36:54.219Z,32.08
2023-11-30T04:39:23.858Z,30.17
2023-11-30T04:41:54.243Z,27.38
2023-11-30T04:44:24.123Z,29.05
2023-11-30T04:46:52.170Z,28.88
2023-11-30T04:49:20.362Z,29.25
2023-11-30T04:51:48.341Z,29.98
2023-11-30T04:54:17.494Z,30.98
2023-11-30T04:56:46.917Z,25.48
2023-11-30T04:59:14.811Z,35.10
2023-11-30T05:01:42.909Z,37.10
2023-11-30T05:04:11.316Z,32.25
2023-11-30T05:06:39.457Z,20.85
2023-11-30T05:09:07.938Z,27.65
2023-11-30T05:11:36.168Z,24.10
2023-11-30T05:14:05.533Z,27.33
2023-11-30T05:16:33.660Z,28.45
2023-11-30T05:19:02.335Z,25.48
2023-11-30T05:21:30.258Z,26.20
2023-11-30T05:23:58.466Z,27.00
2023-11-30T05:26:26.496Z,29.60
2023-11-30T05:28:54.418Z,20.00
2023-11-30T05:31:24.352Z,27.88
2023-11-30T05:33:52.349Z,25.33
2023-11-30T05:36:20.420Z,20.98
2023-11-30T05:38:48.504Z,21.20
2023-11-30T05:41:18.017Z,21.45
2023-11-30T05:43:46.316Z,27.27
2023-11-30T05:46:14.185Z,20.30
2023-11-30T05:48:43.772Z,15.98
2023-11-30T05:51:11.716Z,20.48
2023-11-30T05:53:40.031Z,19.83
2023-11-30T05:56:08.860Z,18.42
2023-11-30T05:58:36.905Z,21.05
2023-11-30T06:01:05.105Z,16.88
2023-11-30T06:03:33.318Z,19.38
2023-11-30T06:06:02.701Z,19.13
2023-11-30T06:08:30.920Z,14.70
2023-11-30T06:10:58.960Z,14.57
2023-11-30T06:13:26.817Z,15.30
2023-11-30T06:15:55.959Z,17.38
2023-11-30T06:18:24.572Z,18.98
2023-11-30T06:20:52.657Z,16.67
2023-11-30T06:23:22.060Z,15.85
2023-11-30T06:25:50.280Z,17.45
2023-11-30T06:28:18.445Z,20.60
2023-11-30T06:30:46.513Z,18.70
2023-11-30T06:33:14.614Z,15.93
2023-11-30T06:35:42.958Z,14.23
2023-11-30T06:38:11.587Z,18.10
2023-11-30T06:40:40.977Z,16.48
2023-11-30T06:43:09.320Z,15.98
2023-11-30T06:45:37.372Z,17.90
2023-11-30T06:48:05.629Z,20.30
2023-11-30T06:50:33.621Z,18.30
2023-11-30T06:53:01.646Z,19.98
2023-11-30T06:55:29.671Z,33.50
2023-11-30T06:57:58.903Z,27.10
2023-11-30T07:00:29.240Z,26.45
2023-11-30T07:02:57.194Z,23.77
2023-11-30T07:05:25.607Z,26.88
2023-11-30T07:07:53.527Z,29.65
2023-11-30T07:10:21.359Z,32.63
2023-11-30T07:12:49.621Z,23.40
2023-11-30T07:15:18.968Z,27.95
2023-11-30T07:17:47.196Z,24.30
2023-11-30T07:20:15.236Z,25.60
2023-11-30T07:22:43.048Z,33.00
2023-11-30T07:25:11.277Z,25.88
2023-11-30T07:27:39.180Z,26.23
2023-11-30T07:30:10.799Z,28.25
2023-11-30T07:32:41.362Z,24.92
2023-11-30T07:35:09.572Z,31.67
2023-11-30T07:37:37.416Z,79.10
2023-11-30T07:40:07.799Z,62.88
2023-11-30T07:42:37.749Z,61.28
2023-11-30T07:45:07.438Z,27.92
2023-11-30T07:47:35.370Z,31.60
2023-11-30T07:50:05.228Z,31.23
2023-11-30T07:52:36.660Z,29.52
2023-11-30T07:55:06.243Z,36.85
2023-11-30T07:57:34.677Z,28.52
2023-11-30T08:00:04.036Z,27.80
2023-11-30T08:02:32.226Z,28.58
2023-11-30T08:05:00.419Z,26.27
2023-11-30T08:07:29.701Z,29.30
2023-11-30T08:09:57.885Z,32.85
2023-11-30T08:12:25.779Z,26.67
2023-11-30T08:14:53.817Z,29.65
2023-11-30T08:17:22.243Z,30.63
2023-11-30T08:19:50.849Z,26.13
2023-11-30T08:22:18.736Z,20.77
2023-11-30T08:24:48.124Z,30.13
2023-11-30T08:27:16.079Z,21.17
2023-11-30T08:29:44.659Z,29.50
2023-11-30T08:32:13.117Z,31.92
2023-11-30T08:34:41.151Z,26.90
2023-11-30T08:37:09.182Z,22.20
2023-11-30T08:39:37.073Z,24.08
2023-11-30T08:42:07.314Z,41.72
2023-11-30T08:44:36.351Z,34.40
2023-11-30T08:47:04.214Z,29.75
2023-11-30T08:49:32.459Z,37.45
2023-11-30T08:52:00.522Z,31.15
2023-11-30T08:54:28.701Z,33.30
2023-11-30T08:56:56.826Z,39.42
2023-11-30T08:59:26.367Z,37.40
2023-11-30T09:01:54.526Z,34.42
2023-11-30T09:04:23.798Z,33.55
2023-11-30T09:06:51.697Z,34.80
2023-11-30T09:09:20.668Z,37.17
2023-11-30T09:11:48.519Z,35.22
2023-11-30T09:14:16.500Z,37.58
2023-11-30T09:16:45.767Z,40.20
2023-11-30T09:19:13.824Z,39.13
2023-11-30T09:21:41.832Z,47.85
2023-11-30T09:24:12.097Z,42.40
2023-11-30T09:26:42.480Z,40.42
2023-11-30T09:29:11.653Z,37.53
2023-11-30T09:31:42.356Z,38.15
2023-11-30T09:34:13.070Z,42.00
2023-11-30T09:36:41.559Z,42.72
2023-11-30T09:39:10.229Z,43.60
2023-11-30T09:41:39.331Z,46.50
2023-11-30T09:44:07.946Z,37.72
2023-11-30T09:46:35.944Z,38.00
2023-11-30T09:49:07.326Z,38.97
2023-11-30T09:51:39.217Z,32.38
2023-11-30T09:54:07.219Z,37.85
2023-11-30T09:56:35.715Z,38.78
2023-11-30T09:59:04.135Z,34.40
2023-11-30T10:01:32.234Z,36.00
2023-11-30T10:04:00.476Z,34.75
2023-11-30T10:06:28.484Z,34.85
2023-11-30T10:09:04.270Z,30.25
2023-11-30T10:11:32.176Z,27.95
2023-11-30T10:14:00.946Z,36.22
2023-11-30T10:16:29.234Z,32.22
2023-11-30T10:18:57.199Z,37.75
2023-11-30T10:21:25.375Z,34.75
2023-11-30T10:23:53.353Z,44.85
2023-11-30T10:26:24.935Z,35.40
2023-11-30T10:28:55.378Z,30.75
2023-11-30T10:31:24.228Z,30.65
2023-11-30T10:33:56.724Z,37.65
2023-11-30T10:36:28.208Z,34.85
2023-11-30T10:39:02.312Z,32.92
2023-11-30T10:41:42.209Z,39.33
2023-11-30T10:44:12.631Z,37.80
2023-11-30T10:46:41.788Z,41.95
2023-11-30T10:49:10.328Z,36.10
2023-11-30T10:51:40.079Z,40.47
2023-11-30T10:54:15.710Z,40.92
2023-11-30T10:56:45.170Z,41.70
2023-11-30T10:59:16.970Z,34.50
2023-11-30T11:01:46.492Z,48.10
2023-11-30T11:04:16.000Z,39.75
2023-11-30T11:06:45.084Z,36.75
2023-11-30T11:09:18.115Z,33.25
2023-11-30T11:11:48.785Z,32.85
2023-11-30T11:14:32.062Z,36.88
2023-11-30T11:17:08.169Z,38.33
2023-11-30T11:19:39.898Z,36.78
2023-11-30T11:22:16.479Z,37.25
2023-11-30T11:24:45.129Z,39.03
2023-11-30T11:27:28.378Z,38.20
2023-11-30T11:29:58.720Z,38.95
2023-11-30T11:32:27.604Z,39.15
2023-11-30T11:34:56.025Z,34.05
2023-11-30T11:37:24.071Z,42.58
2023-11-30T11:39:53.331Z,44.97
2023-11-30T11:42:23.351Z,38.00
2023-11-30T11:44:51.734Z,37.45
2023-11-30T11:47:21.131Z,41.15
2023-11-30T11:49:49.372Z,35.92
2023-11-30T11:52:21.149Z,33.33
2023-11-30T11:54:59.805Z,46.80
2023-11-30T11:57:34.386Z,44.13
2023-11-30T12:00:02.616Z,34.20
2023-11-30T12:02:35.672Z,45.20
2023-11-30T12:05:11.386Z,42.78
2023-11-30T12:07:50.274Z,39.03
2023-11-30T12:10:32.341Z,36.10
2023-11-30T12:13:03.321Z,39.95
2023-11-30T12:15:31.535Z,33.20
2023-11-30T12:17:59.572Z,36.58
2023-11-30T12:20:28.377Z,32.42
2023-11-30T12:22:57.044Z,34.72
2023-11-30T12:25:26.777Z,40.13
2023-11-30T12:27:55.000Z,38.13
2023-11-30T12:30:25.245Z,35.47
2023-11-30T12:32:53.867Z,34.97
2023-11-30T12:35:22.122Z,33.33
2023-11-30T12:37:50.427Z,36.22
2023-11-30T12:40:19.072Z,33.45
2023-11-30T12:42:48.555Z,33.30
2023-11-30T12:45:16.883Z,36.80
2023-11-30T12:47:47.333Z,34.53
2023-11-30T12:50:15.606Z,40.42
2023-11-30T12:52:43.667Z,31.42
2023-11-30T12:55:12.470Z,28.58
2023-11-30T12:57:41.068Z,32.33
2023-11-30T13:00:15.965Z,32.65
2023-11-30T13:02:48.905Z,30.17
2023-11-30T13:05:17.738Z,32.50
2023-11-30T13:07:45.681Z,31.83
2023-11-30T13:10:14.000Z,26.15
2023-11-30T13:12:43.348Z,27.77
2023-11-30T13:15:13.656Z,25.23
2023-11-30T13:17:42.661Z,28.33
2023-11-30T13:20:15.384Z,31.40
2023-11-30T13:22:45.790Z,30.55
2023-11-30T13:25:14.722Z,27.15
2023-11-30T13:27:43.866Z,26.33
2023-11-30T13:30:12.752Z,32.47
2023-11-30T13:32:40.845Z,28.15
2023-11-30T13:35:10.445Z,27.83
2023-11-30T13:37:40.430Z,32.47
2023-11-30T13:40:09.358Z,32.78
2023-11-30T13:42:37.233Z,35.20
2023-11-30T13:45:06.502Z,30.38
2023-11-30T13:47:35.345Z,29.70
2023-11-30T13:50:04.511Z,31.63
2023-11-30T13:52:32.884Z,32.97
2023-11-30T13:55:02.445Z,31.23
2023-11-30T13:57:30.532Z,28.85
2023-11-30T13:59:58.546Z,32.10
2023-11-30T14:02:26.452Z,48.83
2023-11-30T14:04:54.533Z,33.20
2023-11-30T14:07:22.403Z,33.50
2023-11-30T14:09:50.643Z,36.50
2023-11-30T14:12:20.100Z,37.47
2023-11-30T14:14:48.428Z,41.78
2023-11-30T14:17:17.435Z,42.90
2023-11-30T14:19:46.805Z,37.78
2023-11-30T14:22:15.458Z,34.63
2023-11-30T14:24:43.370Z,35.47
2023-11-30T14:27:11.470Z,37.20
2023-11-30T14:29:40.740Z,39.55
2023-11-30T14:32:09.725Z,42.00
2023-11-30T14:34:37.917Z,37.75
2023-11-30T14:37:06.231Z,41.92
2023-11-30T14:39:34.094Z,34.75
2023-11-30T14:42:02.275Z,36.97
2023-11-30T14:44:30.138Z,36.85
2023-11-30T14:47:00.548Z,33.72
2023-11-30T14:49:28.725Z,34.88
2023-11-30T14:51:56.817Z,38.83
2023-11-30T14:57:14.249Z,44.75
2023-11-30T14:59:42.376Z,46.22
2023-11-30T15:02:11.874Z,37.13
2023-11-30T15:04:40.312Z,59.40
2023-11-30T15:07:08.901Z,49.50
2023-11-30T15:09:37.273Z,57.55
2023-11-30T15:12:07.375Z,70.03
2023-11-30T15:14:35.379Z,57.47
2023-11-30T15:17:03.443Z,42.17
2023-11-30T15:19:32.931Z,52.47
2023-11-30T15:22:00.947Z,53.15
2023-11-30T15:24:29.382Z,54.90
2023-11-30T15:26:59.234Z,53.65
2023-11-30T15:29:27.579Z,53.08
2023-11-30T15:31:56.859Z,54.72
2023-11-30T15:34:25.039Z,48.80
2023-11-30T15:36:54.341Z,49.90
2023-11-30T15:39:25.320Z,45.05
2023-11-30T15:41:53.219Z,51.75
2023-11-30T15:44:21.475Z,45.17
2023-11-30T15:49:35.864Z,47.65
2023-11-30T15:52:05.528Z,46.65
2023-11-30T15:54:33.791Z,53.03
2023-11-30T15:57:01.640Z,77.63
2023-11-30T15:59:29.805Z,71.68
2023-11-30T16:01:57.766Z,66.50
2023-11-30T16:04:26.591Z,66.57
2023-11-30T16:06:54.525Z,56.55
2023-11-30T16:09:23.801Z,60.28
2023-11-30T16:11:51.796Z,60.60
2023-11-30T16:14:19.667Z,63.42
2023-11-30T16:16:52.204Z,55.53
2023-11-30T16:19:20.349Z,57.85
2023-11-30T16:21:51.746Z,65.07
2023-11-30T16:24:20.092Z,62.70
2023-11-30T16:26:49.576Z,58.88
2023-11-30T16:29:17.605Z,69.85
2023-11-30T16:31:45.539Z,65.40
2023-11-30T16:34:13.441Z,66.40
2023-11-30T16:36:42.466Z,62.60
2023-11-30T16:39:10.584Z,64.43
2023-11-30T16:41:38.641Z,50.47
2023-11-30T16:44:07.928Z,62.35
2023-11-30T16:46:37.149Z,62.72
2023-11-30T16:49:05.136Z,64.47
2023-11-30T16:51:33.242Z,68.05
2023-11-30T16:56:46.543Z,64.90
2023-11-30T16:59:17.581Z,63.25
2023-11-30T17:01:45.770Z,67.88
2023-11-30T17:04:13.826Z,70.35
2023-11-30T17:06:41.870Z,83.65
2023-11-30T17:09:09.836Z,66.18
2023-11-30T17:11:37.786Z,66.03
2023-11-30T17:14:06.474Z,86.00
2023-11-30T17:16:35.961Z,73.50
2023-11-30T17:19:03.954Z,75.93
2023-11-30T17:21:32.047Z,75.13
2023-11-30T17:23:59.907Z,73.88
2023-11-30T17:26:27.776Z,72.55
2023-11-30T17:28:55.887Z,73.10
2023-11-30T17:31:23.826Z,82.82
2023-11-30T17:33:55.605Z,77.75
2023-11-30T17:36:23.775Z,76.00
2023-11-30T17:38:51.665Z,72.72
2023-11-30T17:41:19.602Z,62.15
2023-11-30T17:43:47.620Z,71.15
2023-11-30T17:46:15.545Z,71.78
2023-11-30T17:48:43.446Z,69.40
2023-11-30T17:51:18.970Z,63.55
2023-11-30T17:53:47.856Z,71.47
2023-11-30T17:56:16.090Z,66.32
2023-11-30T17:58:43.952Z,60.90
2023-11-30T18:01:30.687Z,62.47
2023-11-30T18:03:58.742Z,63.50
2023-11-30T18:06:28.746Z,57.50
2023-11-30T18:08:56.920Z,64.20
2023-11-30T18:11:24.786Z,62.38
2023-11-30T18:13:52.639Z,67.00
2023-11-30T18:16:20.755Z,56.92
2023-11-30T18:18:48.699Z,78.72
2023-11-30T18:21:16.804Z,75.47
2023-11-30T18:23:46.017Z,73.22
2023-11-30T18:26:14.111Z,72.57
2023-11-30T18:28:42.000Z,69.55
2023-11-30T18:31:16.837Z,66.57
2023-11-30T18:34:08.878Z,71.65
2023-11-30T18:36:37.161Z,73.45
2023-11-30T18:39:06.778Z,66.07
2023-11-30T18:41:36.476Z,77.90
2023-11-30T18:44:04.831Z,86.78
2023-11-30T18:46:33.602Z,67.45
2023-11-30T18:49:02.835Z,71.70
2023-11-30T18:51:33.542Z,63.90
2023-11-30T18:54:01.686Z,59.80
2023-11-30T18:56:31.187Z,56.38
2023-11-30T18:58:59.781Z,55.75
2023-11-30T19:01:28.513Z,60.25
2023-11-30T19:03:56.430Z,61.50
2023-11-30T19:06:25.305Z,72.28
2023-11-30T19:08:53.539Z,71.47
2023-11-30T19:11:22.323Z,135.05
2023-11-30T19:13:51.662Z,120.57
2023-11-30T19:16:21.876Z,112.32
2023-11-30T19:18:51.129Z,237.48
2023-11-30T19:21:19.976Z,120.10
2023-11-30T19:23:47.958Z,84.25
2023-11-30T19:26:15.835Z,75.93
2023-11-30T19:28:43.808Z,70.97
2023-11-30T19:31:13.244Z,75.72
2023-11-30T19:33:41.352Z,73.90
2023-11-30T19:36:10.747Z,75.03
2023-11-30T19:38:38.756Z,71.88
2023-11-30T19:41:08.267Z,78.28
2023-11-30T19:43:36.295Z,86.88
2023-11-30T19:46:04.198Z,78.85
2023-11-30T19:48:34.343Z,93.47
2023-11-30T19:51:02.457Z,102.32
2023-11-30T19:53:31.251Z,99.93
2023-11-30T19:55:59.821Z,102.28
2023-11-30T19:58:27.843Z,194.63
2023-11-30T20:00:55.982Z,169.32
2023-11-30T20:03:24.002Z,226.80
2023-11-30T20:05:53.671Z,238.57
2023-11-30T20:08:21.809Z,280.50
2023-11-30T20:10:52.652Z,237.52
2023-11-30T20:13:20.713Z,231.32
2023-11-30T20:15:48.939Z,301.27
2023-11-30T20:18:16.910Z,331.80
2023-11-30T20:20:44.853Z,300.23
2023-11-30T20:23:14.403Z,352.23
2023-11-30T20:25:42.305Z,324.35
2023-11-30T20:28:10.547Z,249.38
2023-11-30T20:30:39.305Z,338.23
2023-11-30T20:33:07.346Z,606.20
2023-11-30T20:35:35.333Z,444.23
2023-11-30T20:38:03.322Z,373.00
2023-11-30T20:40:32.583Z,252.43
2023-11-30T20:45:46.401Z,256.77
2023-11-30T20:48:17.005Z,403.45
2023-11-30T20:50:45.079Z,296.63
2023-11-30T20:53:13.975Z,509.20
2023-11-30T20:55:44.584Z,213.30
2023-11-30T20:58:12.668Z,283.00
2023-11-30T21:00:40.643Z,478.13
2023-11-30T21:03:11.932Z,598.50
2023-11-30T21:05:40.432Z,468.40
2023-11-30T21:08:08.784Z,616.70
2023-11-30T21:10:37.171Z,422.67
2023-11-30T21:13:06.372Z,632.95
2023-11-30T21:15:34.346Z,600.22
2023-11-30T21:18:02.340Z,559.00
2023-11-30T21:20:30.483Z,500.80
2023-11-30T21:22:59.034Z,620.03
2023-11-30T21:25:26.982Z,414.48
2023-11-30T21:27:55.149Z,593.55
2023-11-30T21:30:25.069Z,308.80
2023-11-30T21:32:53.140Z,642.63
2023-11-30T21:35:21.198Z,520.78
2023-11-30T21:37:49.549Z,380.02
2023-11-30T21:40:17.760Z,492.55
2023-11-30T21:42:46.201Z,277.25
2023-11-30T21:45:15.366Z,246.35
2023-11-30T21:47:44.969Z,372.13
2023-11-30T21:50:17.482Z,324.92
2023-11-30T21:52:47.435Z,173.43
2023-11-30T21:55:15.324Z,151.15
2023-11-30T21:57:43.706Z,140.82
2023-11-30T22:00:14.478Z,159.13
2023-11-30T22:02:46.337Z,151.00
2023-11-30T22:05:23.611Z,180.23
2023-11-30T22:07:55.328Z,165.52
2023-11-30T22:10:23.283Z,137.90
2023-11-30T22:12:51.208Z,145.15
2023-11-30T22:15:20.623Z,143.77
2023-11-30T22:17:57.597Z,143.07
2023-11-30T22:20:25.517Z,134.20
2023-11-30T22:22:53.662Z,142.73
2023-11-30T22:25:21.630Z,146.57
2023-11-30T22:27:49.834Z,156.43
2023-11-30T22:30:17.842Z,156.88
2023-11-30T22:32:45.807Z,145.40
2023-11-30T22:35:15.281Z,142.02
2023-11-30T22:37:43.286Z,154.63
2023-11-30T22:40:12.128Z,150.35
2023-11-30T22:42:40.186Z,156.55
2023-11-30T22:45:08.894Z,142.25
2023-11-30T22:47:37.523Z,139.35
2023-11-30T22:50:06.382Z,141.68
2023-11-30T22:52:35.705Z,146.13
2023-11-30T22:55:03.820Z,133.80
2023-11-30T22:57:31.889Z,144.63
2023-11-30T22:59:59.994Z,130.90
2023-11-30T23:02:29.214Z,143.15
2023-11-30T23:04:58.561Z,122.03
2023-11-30T23:07:26.915Z,123.82
2023-11-30T23:09:56.230Z,116.68
2023-11-30T23:12:25.045Z,93.47
2023-11-30T23:14:53.055Z,86.20
2023-11-30T23:17:21.892Z,106.60
2023-11-30T23:19:50.182Z,111.15
2023-11-30T23:22:18.473Z,108.30
2023-11-30T23:24:46.500Z,114.88
2023-11-30T23:27:15.976Z,97.15
2023-11-30T23:29:43.868Z,100.25
2023-11-30T23:32:11.753Z,93.85
2023-11-30T23:34:39.720Z,100.47
2023-11-30T23:37:07.687Z,104.95
2023-11-30T23:39:35.635Z,111.68
2023-11-30T23:42:03.557Z,104.18
2023-11-30T23:44:33.015Z,98.63
2023-11-30T23:47:00.976Z,93.45
2023-11-30T23:49:28.972Z,92.32
2023-11-30T23:51:56.851Z,108.13
2023-11-30T23:54:24.848Z,116.72
2023-11-30T23:56:52.737Z,108.25
2023-11-30T23:59:20.791Z,101.93
